createdAt,value
2023-02-11T00:01:56.814Z,102577.09
2023-02-11T00:04:23.808Z,102567.91
2023-02-11T00:06:50.917Z,102578.56
2023-02-11T00:09:17.790Z,102571.19
2023-02-11T00:11:44.667Z,102572.13
2023-02-11T00:14:12.251Z,102566.31
2023-02-11T00:16:40.837Z,102570.44
2023-02-11T00:19:07.785Z,102572.41
2023-02-11T00:21:36.292Z,102566.91
2023-02-11T00:24:03.468Z,102571.25
2023-02-11T00:26:34.342Z,102562.34
2023-02-11T00:29:02.332Z,102546.44
2023-02-11T00:31:29.723Z,102553.34
2023-02-11T00:33:56.653Z,102557.25
2023-02-11T00:36:26.045Z,102551.13
2023-02-11T00:38:55.018Z,102552.00
2023-02-11T00:41:23.031Z,102552.37
2023-02-11T00:43:50.928Z,102543.66
2023-02-11T00:46:17.903Z,102543.97
2023-02-11T00:48:44.977Z,102531.63
2023-02-11T00:51:12.724Z,102532.41
2023-02-11T00:53:39.892Z,102528.59
2023-02-11T00:56:07.991Z,102530.53
2023-02-11T00:58:35.516Z,102525.31
2023-02-11T01:01:02.612Z,102525.78
2023-02-11T01:03:29.588Z,102509.06
2023-02-11T01:05:56.725Z,102513.34
2023-02-11T01:08:23.707Z,102513.19
2023-02-11T01:11:14.907Z,102513.63
2023-02-11T01:13:42.621Z,102510.03
2023-02-11T01:16:11.180Z,102498.91
2023-02-11T01:18:38.648Z,102496.81
2023-02-11T01:21:06.094Z,102500.94
2023-02-11T01:23:33.049Z,102502.62
2023-02-11T01:26:00.142Z,102494.66
2023-02-11T01:28:29.373Z,102492.84
2023-02-11T01:30:56.733Z,102481.94
2023-02-11T01:33:24.818Z,102475.78
2023-02-11T01:35:52.422Z,102477.37
2023-02-11T01:38:25.844Z,102474.06
2023-02-11T01:40:56.265Z,102471.31
2023-02-11T01:43:25.530Z,102468.38
2023-02-11T01:46:02.713Z,102463.50
2023-02-11T01:48:43.458Z,102462.62
2023-02-11T01:51:18.687Z,102461.53
2023-02-11T01:54:06.684Z,102455.16
2023-02-11T01:56:56.391Z,102458.50
2023-02-11T01:59:29.050Z,102457.66
2023-02-11T02:02:01.493Z,102456.16
2023-02-11T02:04:33.664Z,102455.84
2023-02-11T02:07:06.934Z,102443.66
2023-02-11T02:09:41.377Z,102448.38
2023-02-11T02:12:09.243Z,102443.66
2023-02-11T02:14:40.892Z,102440.53
2023-02-11T02:17:16.676Z,102449.81
2023-02-11T02:20:09.457Z,102439.97
2023-02-11T02:23:04.312Z,102444.47
2023-02-11T02:26:00.246Z,102437.06
2023-02-11T02:28:58.695Z,102448.94
2023-02-11T02:31:33.831Z,102446.47
2023-02-11T02:34:16.121Z,102442.09
2023-02-11T02:36:55.183Z,102439.91
2023-02-11T02:39:27.727Z,102442.41
2023-02-11T02:41:57.016Z,102454.97
2023-02-11T02:44:24.412Z,102441.44
2023-02-11T02:46:51.592Z,102452.41
2023-02-11T02:49:19.701Z,102458.06
2023-02-11T02:52:10.102Z,102448.84
2023-02-11T02:54:37.304Z,102450.06
2023-02-11T02:57:49.252Z,102443.56
2023-02-11T03:00:25.293Z,102446.16
2023-02-11T03:03:16.409Z,102451.16
2023-02-11T03:05:43.248Z,102449.75
2023-02-11T03:08:16.938Z,102448.91
2023-02-11T03:10:51.551Z,102442.78
2023-02-11T03:13:22.728Z,102434.97
2023-02-11T03:15:53.775Z,102445.50
2023-02-11T03:18:26.427Z,102442.22
2023-02-11T03:20:55.108Z,102447.94
2023-02-11T03:23:36.915Z,102439.19
2023-02-11T03:26:12.622Z,102440.50
2023-02-11T03:29:04.009Z,102432.94
2023-02-11T03:31:37.014Z,102433.16
2023-02-11T03:34:12.862Z,102427.53
2023-02-11T03:37:02.788Z,102416.94
2023-02-11T03:39:36.218Z,102418.22
2023-02-11T03:42:05.661Z,102409.97
2023-02-11T03:44:42.196Z,102411.12
2023-02-11T03:47:12.700Z,102413.66
2023-02-11T03:49:42.218Z,102404.47
2023-02-11T03:52:11.621Z,102405.44
2023-02-11T03:54:43.009Z,102406.50
2023-02-11T03:57:10.206Z,102402.50
2023-02-11T03:59:55.575Z,102405.56
2023-02-11T04:02:30.508Z,102406.94
2023-02-11T04:04:58.259Z,102397.16
2023-02-11T04:07:25.799Z,102389.50
2023-02-11T04:09:53.116Z,102385.84
2023-02-11T04:12:20.132Z,102385.34
2023-02-11T04:14:47.023Z,102385.50
2023-02-11T04:17:14.058Z,102379.94
2023-02-11T04:19:41.339Z,102373.59
2023-02-11T04:22:08.941Z,102374.50
2023-02-11T04:24:35.863Z,102366.66
2023-02-11T04:27:02.944Z,102364.81
2023-02-11T04:29:30.149Z,102363.44
2023-02-11T04:31:57.203Z,102366.88
2023-02-11T04:34:24.782Z,102360.56
2023-02-11T04:36:51.770Z,102358.16
2023-02-11T04:39:19.022Z,102350.69
2023-02-11T04:41:46.055Z,102353.56
2023-02-11T04:44:13.004Z,102356.09
2023-02-11T04:46:39.868Z,102352.37
2023-02-11T04:49:06.863Z,102353.62
2023-02-11T04:51:33.851Z,102349.63
2023-02-11T04:54:00.829Z,102353.06
2023-02-11T04:56:29.291Z,102338.91
2023-02-11T04:58:56.275Z,102340.06
2023-02-11T05:01:23.622Z,102340.47
2023-02-11T05:03:51.375Z,102330.34
2023-02-11T05:06:18.494Z,102335.94
2023-02-11T05:08:45.694Z,102337.28
2023-02-11T05:11:18.828Z,102328.16
2023-02-11T05:13:46.648Z,102338.87
2023-02-11T05:16:15.058Z,102327.41
2023-02-11T05:18:43.631Z,102331.19
2023-02-11T05:21:14.092Z,102327.41
2023-02-11T05:23:41.511Z,102340.28
2023-02-11T05:26:09.264Z,102338.50
2023-02-11T05:28:36.977Z,102341.87
2023-02-11T05:31:04.410Z,102343.84
2023-02-11T05:33:32.214Z,102351.47
2023-02-11T05:36:04.729Z,102349.97
2023-02-11T05:38:31.941Z,102354.34
2023-02-11T05:40:58.971Z,102346.81
2023-02-11T05:43:26.096Z,102339.31
2023-02-11T05:45:53.520Z,102350.19
2023-02-11T05:48:20.577Z,102340.88
2023-02-11T05:50:47.571Z,102350.91
2023-02-11T05:53:14.524Z,102341.75
2023-02-11T05:55:41.717Z,102348.91
2023-02-11T05:58:08.811Z,102349.69
2023-02-11T06:00:36.140Z,102354.12
2023-02-11T06:03:04.752Z,102346.41
2023-02-11T06:05:32.374Z,102348.09
2023-02-11T06:07:59.500Z,102348.25
2023-02-11T06:10:26.612Z,102342.66
2023-02-11T06:12:53.825Z,102346.34
2023-02-11T06:15:21.227Z,102344.12
2023-02-11T06:17:48.189Z,102352.28
2023-02-11T06:20:15.685Z,102361.13
2023-02-11T06:22:42.585Z,102359.47
2023-02-11T06:25:11.222Z,102362.41
2023-02-11T06:27:40.030Z,102357.66
2023-02-11T06:30:07.850Z,102362.13
2023-02-11T06:32:43.935Z,102359.69
2023-02-11T06:35:12.698Z,102357.97
2023-02-11T06:37:40.833Z,102355.31
2023-02-11T06:40:08.054Z,102347.00
2023-02-11T06:42:38.391Z,102353.38
2023-02-11T06:45:21.533Z,102343.88
2023-02-11T06:48:20.038Z,102326.81
2023-02-11T06:50:49.336Z,102322.28
2023-02-11T06:53:28.825Z,102322.72
2023-02-11T06:56:20.150Z,102322.78
2023-02-11T06:59:08.622Z,102314.28
2023-02-11T07:01:52.414Z,102303.44
2023-02-11T07:07:39.758Z,102294.72
2023-02-11T07:10:24.122Z,102291.47
2023-02-11T07:16:57.501Z,102291.19
2023-02-11T07:20:03.335Z,102291.88
2023-02-11T07:23:58.106Z,102292.25
2023-02-11T07:26:53.463Z,102290.25
2023-02-11T07:35:33.077Z,102297.03
2023-02-11T07:38:00.123Z,102305.75
2023-02-11T07:40:31.841Z,102304.97
2023-02-11T07:43:03.773Z,102311.06
2023-02-11T07:45:30.795Z,102317.69
2023-02-11T07:47:58.038Z,102305.44
2023-02-11T07:50:24.916Z,102300.47
2023-02-11T07:52:52.772Z,102297.09
2023-02-11T07:55:19.604Z,102301.28
2023-02-11T07:57:46.502Z,102303.25
2023-02-11T08:00:14.196Z,102305.13
2023-02-11T08:02:41.216Z,102303.19
2023-02-11T08:05:08.328Z,102303.88
2023-02-11T08:07:35.184Z,102303.50
2023-02-11T08:10:02.411Z,102299.59
2023-02-11T08:12:29.350Z,102303.91
2023-02-11T08:14:56.645Z,102285.62
2023-02-11T08:17:23.492Z,102289.41
2023-02-11T08:19:50.425Z,102298.47
2023-02-11T08:22:17.297Z,102300.50
2023-02-11T08:24:44.289Z,102302.09
2023-02-11T08:27:11.141Z,102299.59
2023-02-11T08:29:38.001Z,102302.19
2023-02-11T08:32:05.162Z,102301.69
2023-02-11T08:34:32.092Z,102289.03
2023-02-11T08:36:58.966Z,102288.81
2023-02-11T08:39:28.349Z,102293.88
2023-02-11T08:41:57.018Z,102287.56
2023-02-11T08:44:24.477Z,102277.37
2023-02-11T08:46:51.838Z,102278.38
2023-02-11T08:49:18.976Z,102279.28
2023-02-11T08:51:46.347Z,102274.91
2023-02-11T08:54:14.523Z,102278.88
2023-02-11T08:56:41.667Z,102280.87
2023-02-11T08:59:11.441Z,102282.03
2023-02-11T09:01:38.138Z,102278.09
2023-02-11T09:04:05.699Z,102287.37
2023-02-11T09:06:32.737Z,102284.72
2023-02-11T09:08:59.937Z,102283.38
2023-02-11T09:11:30.422Z,102281.63
2023-02-11T09:13:57.811Z,102285.72
2023-02-11T09:16:28.438Z,102282.00
2023-02-11T09:18:57.776Z,102275.91
2023-02-11T09:21:25.021Z,102268.59
2023-02-11T09:23:51.935Z,102270.25
2023-02-11T09:26:22.540Z,102257.66
2023-02-11T09:28:50.411Z,102257.09
2023-02-11T09:31:20.882Z,102260.31
2023-02-11T09:33:50.560Z,102261.78
2023-02-11T09:36:23.387Z,102255.09
2023-02-11T09:38:50.668Z,102245.53
2023-02-11T09:41:23.276Z,102245.81
2023-02-11T09:43:53.371Z,102246.75
2023-02-11T09:46:22.030Z,102256.59
2023-02-11T09:48:52.204Z,102245.25
2023-02-11T09:51:26.820Z,102246.84
2023-02-11T09:54:00.625Z,102243.63
2023-02-11T09:56:28.780Z,102235.69
2023-02-11T09:58:55.704Z,102229.38
2023-02-11T10:01:34.730Z,102218.72
2023-02-11T10:04:23.208Z,102216.37
2023-02-11T10:06:57.851Z,102219.47
2023-02-11T10:09:33.564Z,102221.69
2023-02-11T10:12:28.229Z,102219.09
2023-02-11T10:15:06.148Z,102209.72
2023-02-11T10:18:05.415Z,102206.81
2023-02-11T10:20:39.315Z,102205.72
2023-02-11T10:23:15.997Z,102192.94
2023-02-11T10:25:50.990Z,102191.12
2023-02-11T10:28:20.916Z,102184.69
2023-02-11T10:30:56.760Z,102180.28
2023-02-11T10:33:26.456Z,102181.47
2023-02-11T10:35:53.405Z,102177.66
2023-02-11T10:38:20.455Z,102169.63
2023-02-11T10:40:47.385Z,102166.97
2023-02-11T10:43:17.188Z,102166.34
2023-02-11T10:45:53.883Z,102159.72
2023-02-11T10:48:40.771Z,102165.25
2023-02-11T10:51:14.578Z,102152.81
2023-02-11T10:53:42.260Z,102144.81
2023-02-11T10:56:13.019Z,102148.16
2023-02-11T10:58:54.578Z,102157.66
2023-02-11T11:01:24.746Z,102152.41
2023-02-11T11:03:53.212Z,102143.66
2023-02-11T11:06:32.709Z,102138.00
2023-02-11T11:08:59.884Z,102140.88
2023-02-11T11:11:27.618Z,102137.25
2023-02-11T11:13:54.359Z,102138.16
2023-02-11T11:16:26.305Z,102134.16
2023-02-11T11:19:14.775Z,102130.12
2023-02-11T11:21:51.044Z,102125.09
2023-02-11T11:24:20.823Z,102135.37
2023-02-11T11:26:53.908Z,102127.50
2023-02-11T11:29:35.939Z,102126.44
2023-02-11T11:32:27.859Z,102118.66
2023-02-11T11:34:57.326Z,102116.22
2023-02-11T11:37:28.209Z,102120.50
2023-02-11T11:40:24.146Z,102116.50
2023-02-11T11:43:23.061Z,102100.97
2023-02-11T11:45:58.845Z,102088.56
2023-02-11T11:48:31.612Z,102085.75
2023-02-11T11:51:11.948Z,102074.63
2023-02-11T11:53:48.558Z,102065.84
2023-02-11T11:56:39.930Z,102061.63
2023-02-11T11:59:18.803Z,102049.72
2023-02-11T12:02:08.573Z,102046.87
2023-02-11T12:04:35.407Z,102042.75
2023-02-11T12:07:26.057Z,102038.88
2023-02-11T12:10:21.904Z,102033.44
2023-02-11T12:12:57.616Z,102024.66
2023-02-11T12:15:39.596Z,102026.28
2023-02-11T12:18:12.637Z,102027.25
2023-02-11T12:21:13.584Z,102022.91
2023-02-11T12:24:07.864Z,102016.13
2023-02-11T12:27:03.643Z,102016.22
2023-02-11T12:29:37.937Z,102010.97
2023-02-11T12:32:22.932Z,102010.44
2023-02-11T12:35:00.856Z,102000.81
2023-02-11T12:37:49.389Z,101988.47
2023-02-11T12:40:53.301Z,101989.06
2023-02-11T12:43:34.088Z,101976.13
2023-02-11T12:46:15.242Z,101963.53
2023-02-11T12:48:55.560Z,101964.31
2023-02-11T12:51:32.250Z,101952.34
2023-02-11T12:54:11.807Z,101953.31
2023-02-11T12:56:59.576Z,101932.66
2023-02-11T12:59:44.027Z,101928.41
2023-02-11T13:02:42.214Z,101922.00
2023-02-11T13:05:20.150Z,101920.53
2023-02-11T13:07:49.786Z,101914.44
2023-02-11T13:10:34.347Z,101908.31
2023-02-11T13:13:17.809Z,101911.94
2023-02-11T13:15:51.457Z,101902.06
2023-02-11T13:18:32.754Z,101905.53
2023-02-11T13:21:53.079Z,101901.69
2023-02-11T13:24:34.645Z,101909.53
2023-02-11T13:27:33.476Z,101907.81
2023-02-11T13:30:04.422Z,101906.38
2023-02-11T13:32:56.244Z,101914.94
2023-02-11T13:35:41.326Z,101909.16
2023-02-11T13:38:28.000Z,101913.88
2023-02-11T13:41:21.599Z,101915.53
2023-02-11T13:44:04.362Z,101918.19
2023-02-11T13:47:05.080Z,101916.47
2023-02-11T13:49:41.769Z,101914.97
2023-02-11T13:52:37.605Z,101915.06
2023-02-11T13:55:23.404Z,101911.59
2023-02-11T13:58:08.656Z,101904.16
2023-02-11T14:00:36.268Z,101913.88
2023-02-11T14:03:30.627Z,101908.69
2023-02-11T14:06:28.572Z,101897.31
2023-02-11T14:09:14.634Z,101907.84
2023-02-11T14:11:41.911Z,101911.91
2023-02-11T14:14:29.348Z,101907.91
2023-02-11T14:16:59.518Z,101891.22
2023-02-11T14:19:38.553Z,101882.16
2023-02-11T14:22:09.711Z,101873.41
2023-02-11T14:24:36.597Z,101875.19
2023-02-11T14:27:07.999Z,101869.88
2023-02-11T14:29:51.489Z,101864.37
2023-02-11T14:32:41.193Z,101878.75
2023-02-11T14:35:39.437Z,101868.25
2023-02-11T14:38:45.552Z,101872.94
2023-02-11T14:41:29.950Z,101873.09
2023-02-11T14:44:04.904Z,101875.66
2023-02-11T14:46:36.598Z,101880.13
2023-02-11T14:49:25.246Z,101881.94
2023-02-11T14:51:54.629Z,101890.38
2023-02-11T14:54:25.452Z,101896.34
2023-02-11T14:57:15.303Z,101891.75
2023-02-11T15:00:03.212Z,101886.34
2023-02-11T15:02:34.824Z,101886.84
2023-02-11T15:05:27.816Z,101889.69
2023-02-11T15:08:03.113Z,101887.87
2023-02-11T15:10:48.348Z,101886.63
2023-02-11T15:13:22.276Z,101878.19
2023-02-11T15:15:54.011Z,101883.72
2023-02-11T15:18:24.575Z,101894.06
2023-02-11T15:20:52.549Z,101887.72
2023-02-11T15:23:27.301Z,101884.22
2023-02-11T15:25:56.556Z,101884.53
2023-02-11T15:28:30.533Z,101886.97
2023-02-11T15:31:04.236Z,101884.28
2023-02-11T15:33:33.141Z,101863.25
2023-02-11T15:36:02.113Z,101867.56
2023-02-11T15:38:30.552Z,101857.91
2023-02-11T15:41:01.096Z,101858.81
2023-02-11T15:43:48.646Z,101863.38
2023-02-11T15:46:19.153Z,101866.81
2023-02-11T15:48:50.578Z,101857.72
2023-02-11T15:51:31.354Z,101862.22
2023-02-11T15:54:00.935Z,101856.03
2023-02-11T15:56:43.603Z,101853.41
2023-02-11T15:59:47.333Z,101840.16
2023-02-11T16:02:26.461Z,101842.75
2023-02-11T16:05:03.946Z,101835.53
2023-02-11T16:07:41.961Z,101836.06
2023-02-11T16:10:36.700Z,101842.31
2023-02-11T16:13:19.559Z,101842.97
2023-02-11T16:15:54.398Z,101838.16
2023-02-11T16:18:37.287Z,101834.31
2023-02-11T16:21:08.628Z,101835.38
2023-02-11T16:23:42.298Z,101839.22
2023-02-11T16:26:20.835Z,101841.13
2023-02-11T16:28:47.918Z,101834.31
2023-02-11T16:31:15.170Z,101838.97
2023-02-11T16:33:42.161Z,101835.88
2023-02-11T16:36:14.068Z,101838.28
2023-02-11T16:38:41.061Z,101839.09
2023-02-11T16:41:09.082Z,101846.34
2023-02-11T16:43:36.004Z,101839.25
2023-02-11T16:46:04.174Z,101834.22
2023-02-11T16:48:35.010Z,101830.19
2023-02-11T16:51:02.262Z,101834.03
2023-02-11T16:53:29.190Z,101837.13
2023-02-11T16:55:56.080Z,101840.88
2023-02-11T16:58:24.280Z,101843.47
2023-02-11T17:00:52.054Z,101850.31
2023-02-11T17:03:27.425Z,101835.59
2023-02-11T17:05:56.143Z,101837.31
2023-02-11T17:08:23.360Z,101852.31
2023-02-11T17:10:50.567Z,101842.72
2023-02-11T17:13:17.630Z,101850.97
2023-02-11T17:15:44.581Z,101850.78
2023-02-11T17:18:14.515Z,101860.87
2023-02-11T17:20:42.197Z,101859.00
2023-02-11T17:23:09.633Z,101859.38
2023-02-11T17:25:39.352Z,101854.59
2023-02-11T17:28:07.288Z,101857.03
2023-02-11T17:30:34.478Z,101869.22
2023-02-11T17:33:01.478Z,101874.28
2023-02-11T17:35:28.384Z,101885.97
2023-02-11T17:37:55.348Z,101870.78
2023-02-11T17:40:22.263Z,101868.09
2023-02-11T17:42:50.446Z,101875.59
2023-02-11T17:45:17.567Z,101873.38
2023-02-11T17:47:45.215Z,101880.72
2023-02-11T17:50:12.201Z,101870.97
2023-02-11T17:52:39.166Z,101866.84
2023-02-11T17:55:07.046Z,101861.53
2023-02-11T17:57:34.655Z,101861.38
2023-02-11T18:00:01.757Z,101857.88
2023-02-11T18:02:28.637Z,101858.81
2023-02-11T18:04:57.695Z,101856.31
2023-02-11T18:07:26.104Z,101854.00
2023-02-11T18:09:53.330Z,101854.84
2023-02-11T18:12:25.385Z,101852.34
2023-02-11T18:14:56.854Z,101854.09
2023-02-11T18:17:24.876Z,101848.91
2023-02-11T18:19:55.128Z,101857.91
2023-02-11T18:22:21.999Z,101877.72
2023-02-11T18:24:53.266Z,101873.69
2023-02-11T18:27:21.601Z,101868.09
2023-02-11T18:29:48.626Z,101863.84
2023-02-11T18:32:15.678Z,101862.94
2023-02-11T18:34:43.225Z,101868.63
2023-02-11T18:37:10.514Z,101875.75
2023-02-11T18:39:37.673Z,101878.13
2023-02-11T18:42:04.747Z,101873.03
2023-02-11T18:44:31.770Z,101877.94
2023-02-11T18:46:58.709Z,101870.03
2023-02-11T18:49:25.604Z,101866.91
2023-02-11T18:51:53.658Z,101879.72
2023-02-11T18:54:20.504Z,101869.47
2023-02-11T18:56:47.407Z,101868.59
2023-02-11T18:59:16.252Z,101873.91
2023-02-11T19:01:47.041Z,101863.75
2023-02-11T19:04:19.150Z,101864.97
2023-02-11T19:06:51.964Z,101861.66
2023-02-11T19:09:20.300Z,101849.34
2023-02-11T19:11:47.436Z,101855.62
2023-02-11T19:14:35.509Z,101852.19
2023-02-11T19:17:06.789Z,101852.50
2023-02-11T19:19:36.360Z,101853.72
2023-02-11T19:22:08.474Z,101855.09
2023-02-11T19:24:37.537Z,101852.19
2023-02-11T19:27:05.282Z,101862.34
2023-02-11T19:29:35.370Z,101855.25
2023-02-11T19:32:04.182Z,101851.41
2023-02-11T19:34:31.152Z,101851.00
2023-02-11T19:37:00.918Z,101853.84
2023-02-11T19:39:27.973Z,101861.69
2023-02-11T19:41:56.257Z,101855.03
2023-02-11T19:44:23.160Z,101856.31
2023-02-11T19:46:53.848Z,101854.19
2023-02-11T19:49:24.660Z,101862.22
2023-02-11T19:51:52.922Z,101862.91
2023-02-11T19:54:20.888Z,101863.00
2023-02-11T19:56:48.961Z,101865.75
2023-02-11T19:59:17.382Z,101861.88
2023-02-11T20:01:47.803Z,101857.19
2023-02-11T20:04:17.513Z,101868.41
2023-02-11T20:06:54.127Z,101869.69
2023-02-11T20:09:21.886Z,101859.59
2023-02-11T20:11:49.520Z,101863.22
2023-02-11T20:14:16.457Z,101865.59
2023-02-11T20:16:49.047Z,101870.81
2023-02-11T20:19:20.293Z,101872.53
2023-02-11T20:21:48.953Z,101865.59
2023-02-11T20:24:17.357Z,101864.94
2023-02-11T20:26:45.994Z,101869.62
2023-02-11T20:29:13.101Z,101876.72
2023-02-11T20:31:40.231Z,101863.34
2023-02-11T20:34:07.344Z,101876.31
2023-02-11T20:36:37.662Z,101873.31
2023-02-11T20:39:06.322Z,101878.72
2023-02-11T20:41:35.796Z,101870.44
2023-02-11T20:44:05.956Z,101879.47
2023-02-11T20:46:34.350Z,101872.25
2023-02-11T20:49:01.948Z,101871.44
2023-02-11T20:51:31.215Z,101863.69
2023-02-11T20:53:58.871Z,101861.06
2023-02-11T20:56:28.969Z,101860.84
2023-02-11T20:58:58.870Z,101869.72
2023-02-11T21:01:27.203Z,101871.22
2023-02-11T21:03:59.112Z,101869.72
2023-02-11T21:06:27.681Z,101866.78
2023-02-11T21:08:54.559Z,101873.13
2023-02-11T21:11:21.533Z,101870.34
2023-02-11T21:13:48.824Z,101868.44
2023-02-11T21:16:17.827Z,101868.53
2023-02-11T21:18:44.722Z,101864.31
2023-02-11T21:21:11.753Z,101872.81
2023-02-11T21:23:39.993Z,101880.50
2023-02-11T21:26:08.282Z,101886.22
2023-02-11T21:28:36.028Z,101880.47
2023-02-11T21:31:05.778Z,101880.31
2023-02-11T21:33:35.701Z,101874.13
2023-02-11T21:36:04.710Z,101871.56
2023-02-11T21:38:32.964Z,101873.09
2023-02-11T21:41:04.911Z,101872.56
2023-02-11T21:43:32.272Z,101879.62
2023-02-11T21:45:59.435Z,101882.66
2023-02-11T21:48:27.218Z,101881.03
2023-02-11T21:50:54.445Z,101887.59
2023-02-11T21:53:21.363Z,101880.59
2023-02-11T21:55:49.456Z,101881.72
2023-02-11T21:58:16.320Z,101881.59
2023-02-11T22:00:43.335Z,101882.47
2023-02-11T22:03:11.114Z,101878.59
2023-02-11T22:05:40.704Z,101879.16
2023-02-11T22:08:09.353Z,101883.72
2023-02-11T22:10:36.338Z,101883.22
2023-02-11T22:13:03.297Z,101879.59
2023-02-11T22:15:30.204Z,101876.66
2023-02-11T22:17:57.127Z,101875.53
2023-02-11T22:20:24.071Z,101879.66
2023-02-11T22:22:51.082Z,101866.34
2023-02-11T22:25:18.177Z,101882.53
2023-02-11T22:27:45.083Z,101881.09
2023-02-11T22:30:12.485Z,101877.50
2023-02-11T22:32:40.415Z,101873.16
2023-02-11T22:35:07.302Z,101870.25
2023-02-11T22:37:34.206Z,101872.06
2023-02-11T22:40:03.230Z,101870.09
2023-02-11T22:42:30.166Z,101872.09
2023-02-11T22:44:56.968Z,101871.22
2023-02-11T22:47:23.814Z,101874.13
2023-02-11T22:49:50.716Z,101878.97
2023-02-11T22:52:17.867Z,101884.59
2023-02-11T22:54:44.775Z,101881.37
2023-02-11T22:57:11.639Z,101887.94
2023-02-11T22:59:38.494Z,101887.03
2023-02-11T23:02:05.550Z,101893.16
2023-02-11T23:04:32.573Z,101888.63
2023-02-11T23:06:59.461Z,101885.06
2023-02-11T23:09:26.341Z,101898.16
2023-02-11T23:11:54.589Z,101897.53
2023-02-11T23:14:21.951Z,101887.91
2023-02-11T23:16:51.534Z,101883.63
2023-02-11T23:19:18.885Z,101887.03
2023-02-11T23:21:45.853Z,101885.09
2023-02-11T23:24:14.565Z,101885.09
2023-02-11T23:26:42.999Z,101877.66
2023-02-11T23:29:10.992Z,101883.44
2023-02-11T23:31:40.544Z,101886.88
2023-02-11T23:34:08.562Z,101885.34
2023-02-11T23:36:35.814Z,101872.56
2023-02-11T23:39:03.289Z,101879.38
2023-02-11T23:41:30.136Z,101882.97
2023-02-11T23:43:58.219Z,101877.31
2023-02-11T23:46:27.081Z,101873.00
2023-02-11T23:48:54.176Z,101878.13
2023-02-11T23:51:21.584Z,101871.81
2023-02-11T23:53:52.782Z,101868.13
2023-02-11T23:56:24.919Z,101868.00
2023-02-11T23:58:53.847Z,101868.63
